crear test y ex├ímenes   Fast quiz maker   creare esami e test online   Criar teste e exames online
Criar testes e exames online
 

Criar Teste Ver outros Testes
A tropopausa é um camada com pouca espessura, que normalmente varia de:

. 1 a 2 km
. 3 a 5 km
. 100 a 200 km
. 300 a 400 km
A escala termométrica utilizada na aviação brasileira é a:

. Kelvin
. Rankine
. Celsius
. Fahrenheit
O fenômeno denominado cavado é um sistema bárico de:

. altas pressões aberto
. baixas pressões aberto
. altas pressões fechado
. baixas pressões fechado
Em relação ao altímetro, pode-se afirmar que:

. o mesmo utiliza a pressão atmosférica estática do ar
. o mesmo utiliza a pressão atmosférica dinâmica do ar
. é um instrumento que relaciona a altitude com a umidade relativa do ar
. é um instrumento que relacionada a altitude com a pressão real
Para que um determinado volume de ar torna-se saturado, é condição primordial que a umidade relativa esteja em torno de:

. 4%
. 25%
. 50%
. 100%
O nevoeiro pré-frontal forma-se associado à:

. CAT
. corrente de jato
. frente fria
. frente quente
Determinar a temperatura do ar, em graus Celsius , à superfície sabendo-se que a do ponto de orvalho, na base da nuvem cumulus, é igual a 15°C e o NCC da respectiva nebulosidade é igual a 1000 metros.

. 25
. 27
. 30
. 32
Há nuvens, que em função de sua natureza, propiciam turbulência térmica em aeronave em voo. Dentre elas temos:

. ST
. CI
. SC
. CS
Os ventos que fluem por efeito, exclusivo, do gradiente de pressão denominam-se:

. gradientes
. geostróficos
. barostróficos
. ciclostróficos
O sistema frontal que, normalmente, minisfesta as trovoadas mais intensas, é o:

. frio
. quente
. estacionário
. semi-estacionário
A predominância de corrente ascendentes, nas células de trovoada, verifica-se na fase denominada:

. apogeu
. formação
. dissipação
A ocorrência de granizo nas trovoadas podem ser identificado pela coloração:

. azulada
. amarelada
. esverdeada
. avermelhada
Dentre as temperatura, em graus Celsius, relacionadas abaixo, a que mais propicia a formação de gelo em acft em voo é a de:

. 00
. +5
. -5
. -10
No METAR SBKP 191100Z 12008KT 9999 FEW020 SCT230 22/21 Q1018, tem-se:

. Vento com 12 KT
. teto de 2000 pés
. Visibilidade vertical igual ou superior a 10 km
. pressão reduzida ao nível do mar igual a 1018hpa
No METAR SBSJ 191100Z 00000KT 8000 SCT010 BKN090 23/22 Q1017, Tem-se:

. Vento de 11 kt
. encoberto a 9000 pés
. nuvens espaças a 300 metros
. pressão ao nível da pista de 1017 hpa
Indique, entre as alternativas relacionadas abaixo, a que designa o código para informação (observação) meteorológica aeronáutica regular:

. TAF
. METAR
. SPECI
. SIGMET
Na mensagem: SBCW SIGMET 03 VALID 201155/201455 SBCT - CURITIBA FIR EMBD TS CB TOPS FL370 FCST IN BORGA PSN/TOMBO PSN/SBCG/SBCR/BORGA MOV E 08KT WKN, tem-se:

. trovoada embutida na área controle brasilia
. um período de validez de 3 horas para aquele fenômeno
. turbulência observada em borga, a 37000 pés de altitude
. trovoada deslocando-se para leste, com 08 kt, porém intensificando-se
TAF SBKG 101600Z 1018/1106 12007KT 8000 BKN018 TX26/1018Z TN21/1105Z BECMG 1100/1102 BKN013 PROB40 1102/1106 5000 RA BR, tem-se:

. nubrado a 1800 pés em todo o período
. 5000 metros de visibilidade horizontal do dia 11 as 02 horas até dia 11 as 06
. Probabilidade muito alta de chuva leve
. teto diminui após as 02 horas do dia 11
SBAZ SIGMET 50 VALID 102300/110200 SBAZ - SBAZ AMAZONICA FIR EMBD TS FCST WI S0424 W05831 - S0215 W05734 - S0317 W05214 - S0435 W05218 - S0554 W04951 - S0918 W05153 - S0746 W05723 - S0424 W05831 TOP FL450 MOV SW 12KT NC, tem-se

. fenômeno movendo-se para NW
. validade de 10 horas para o fenômeno
. Fenômeno enfraquecendo-se
. fenômeno movendo-se para SW com 12kt
METAR SBCT 110000Z 14005KT 6000 2500SE -DZ OVC003 15/14 Q1023

. visibilidade restrita a 2500 pés para setor Sudeste
. chuva leve
. nublado a 300 pés
. umidade relativa em 93%


Crie o seu propio teste grátis.
Criarteste.com não se responsabiliza pelo conteúdo publicado pelos usuários.
Usamos as cookies para personalizar os anúncios e analizamos o tráfego web para melhorar nosso conteúdo. Nós compartilhamos essas informações com Google Analytics, Adsense e Google+. O nosso site e Google usam essas informações para fornecer serviços melhores.Ok   Uso das cookies Google